Time;durP1;ratioP1;P1;durP2;ratioP2;P2;SDS_P1;SDS_P2;PMS_P1;PMS_P2;Temp;Humidity;BMP_temperature;BMP_pressure;BME280_temperature;BME280_humidity;BME280_pressure;Samples;Min_cycle;Max_cycle;Signal;HPM_P1;HPM_P2
2022/11/23 00:01:26;;;;;;;49.73;28.37;;;2.30;94.00;;;;;;5052336;28;20190;-89
2022/11/23 00:03:54;;;;;;;48.93;27.97;;;2.30;94.00;;;;;;5052202;28;20265;-88
2022/11/23 00:06:21;;;;;;;48.03;27.30;;;2.30;94.00;;;;;;5052417;28;20290;-88
2022/11/23 00:08:47;;;;;;;53.07;29.13;;;2.30;93.90;;;;;;5052187;28;20195;-88
2022/11/23 00:11:13;;;;;;;46.10;26.10;;;2.40;93.90;;;;;;5052306;28;20179;-88
2022/11/23 00:13:40;;;;;;;47.10;27.13;;;2.40;93.90;;;;;;5052284;28;20738;-88
2022/11/23 00:16:13;;;;;;;48.33;27.67;;;2.40;93.90;;;;;;5052672;28;20198;-88
2022/11/23 00:18:39;;;;;;;44.33;26.73;;;2.50;93.90;;;;;;5053693;28;20641;-88
2022/11/23 00:21:10;;;;;;;47.13;26.47;;;2.50;93.80;;;;;;5052288;28;20187;-88
2022/11/23 00:23:36;;;;;;;48.00;26.03;;;2.50;93.80;;;;;;5053449;28;20176;-88
2022/11/23 00:26:02;;;;;;;49.60;27.17;;;2.60;93.80;;;;;;5053509;28;20196;-88
2022/11/23 00:28:28;;;;;;;44.47;27.60;;;2.60;93.70;;;;;;5052693;28;20246;-87
2022/11/23 00:30:53;;;;;;;46.03;26.00;;;2.70;93.70;;;;;;5054850;28;20176;-88
2022/11/23 00:33:19;;;;;;;42.17;25.50;;;2.70;93.70;;;;;;5055891;28;20188;-88
2022/11/23 00:35:44;;;;;;;43.47;26.97;;;2.80;93.70;;;;;;5056067;28;20200;-88
2022/11/23 00:38:11;;;;;;;44.80;25.70;;;2.80;93.60;;;;;;5056460;28;20653;-88
2022/11/23 00:40:36;;;;;;;43.10;24.73;;;2.80;93.50;;;;;;5056020;28;20176;-88
2022/11/23 00:43:02;;;;;;;42.57;25.70;;;2.90;93.40;;;;;;5055723;28;20551;-88
2022/11/23 00:45:27;;;;;;;44.03;25.93;;;2.90;93.40;;;;;;5056301;28;20697;-88
2022/11/23 00:47:53;;;;;;;48.13;25.30;;;2.90;93.30;;;;;;5056045;28;20242;-89
2022/11/23 00:50:18;;;;;;;43.10;24.90;;;2.90;93.20;;;;;;5055977;28;20582;-88
2022/11/23 00:52:44;;;;;;;43.03;26.10;;;2.90;93.20;;;;;;5055913;28;20172;-88
2022/11/23 00:55:09;;;;;;;40.40;24.00;;;2.90;93.10;;;;;;5055496;28;20741;-88
2022/11/23 00:57:35;;;;;;;42.93;25.90;;;2.90;93.10;;;;;;5057183;28;20649;-88
2022/11/23 01:00:00;;;;;;;41.73;25.27;;;2.90;93.00;;;;;;5055135;28;20172;-89
2022/11/23 01:02:26;;;;;;;42.03;26.10;;;2.90;93.00;;;;;;5055510;28;20211;-88
2022/11/23 01:04:51;;;;;;;42.93;25.03;;;3.00;93.00;;;;;;5055327;28;20289;-88
2022/11/23 01:07:17;;;;;;;35.80;23.00;;;3.00;92.90;;;;;;5056598;28;20200;-88
2022/11/23 01:09:42;;;;;;;44.17;24.73;;;3.00;92.80;;;;;;5055649;28;20180;-88
2022/11/23 01:12:08;;;;;;;38.93;24.43;;;3.00;92.80;;;;;;5055727;28;20222;-88
2022/11/23 01:14:34;;;;;;;40.53;24.77;;;3.00;92.80;;;;;;5055738;28;20183;-89
2022/11/23 01:16:59;;;;;;;42.97;23.97;;;3.00;92.70;;;;;;5056745;28;20192;-90
2022/11/23 01:19:25;;;;;;;42.50;24.80;;;3.00;92.80;;;;;;5055404;28;20215;-89
2022/11/23 01:21:50;;;;;;;41.33;25.07;;;3.00;92.70;;;;;;5055852;28;20184;-89
2022/11/23 01:24:19;;;;;;;44.13;24.30;;;3.00;92.70;;;;;;5055106;28;20191;-89
2022/11/23 01:26:49;;;;;;;38.67;22.80;;;3.00;92.70;;;;;;5055594;28;20212;-90
2022/11/23 01:29:14;;;;;;;36.17;22.87;;;3.00;92.70;;;;;;5055071;28;20200;-89
2022/11/23 01:31:40;;;;;;;37.63;24.17;;;3.00;92.60;;;;;;5055118;28;20591;-90
2022/11/23 01:34:06;;;;;;;42.07;25.00;;;3.00;92.60;;;;;;5056295;28;20702;-88
2022/11/23 01:36:33;;;;;;;39.33;24.03;;;3.00;92.60;;;;;;5055220;28;20193;-89
2022/11/23 01:39:00;;;;;;;40.80;22.83;;;3.00;92.60;;;;;;5055888;28;20168;-87
2022/11/23 01:41:30;;;;;;;37.93;23.47;;;3.10;92.60;;;;;;5055951;28;20168;-88
2022/11/23 01:43:56;;;;;;;38.27;24.40;;;3.10;92.50;;;;;;5054995;28;20164;-88
2022/11/23 01:46:22;;;;;;;45.23;24.40;;;3.20;92.50;;;;;;5054790;28;20203;-88
2022/11/23 01:49:04;;;;;;;35.27;24.23;;;3.10;92.50;;;;;;5055252;28;20182;-88
2022/11/23 01:51:34;;;;;;;40.77;25.03;;;3.20;92.50;;;;;;5056673;28;20211;-88
2022/11/23 01:54:03;;;;;;;35.17;22.80;;;3.20;92.40;;;;;;5055816;28;20640;-88
2022/11/23 01:56:36;;;;;;;37.47;23.17;;;3.20;92.50;;;;;;5054887;28;20208;-88
2022/11/23 01:59:06;;;;;;;36.03;23.33;;;3.20;92.50;;;;;;5054859;28;20175;-88
2022/11/23 02:01:32;;;;;;;41.63;23.97;;;3.30;92.50;;;;;;5055391;28;20180;-88
2022/11/23 02:03:59;;;;;;;34.93;22.97;;;3.30;92.40;;;;;;5054443;28;20187;-88
2022/11/23 02:06:25;;;;;;;39.70;22.90;;;3.30;92.40;;;;;;5053626;28;20677;-89
2022/11/23 02:08:52;;;;;;;35.03;23.17;;;3.30;92.40;;;;;;5054442;28;20176;-88
2022/11/23 02:11:17;;;;;;;37.63;23.23;;;3.30;92.30;;;;;;5053589;28;20183;-88
2022/11/23 02:13:46;;;;;;;36.23;21.80;;;3.30;92.30;;;;;;5053528;28;20172;-89
2022/11/23 02:16:13;;;;;;;34.77;21.90;;;3.40;92.30;;;;;;5053456;28;20753;-89
2022/11/23 02:18:41;;;;;;;39.27;22.70;;;3.40;92.30;;;;;;5053758;28;20168;-89
2022/11/23 02:21:07;;;;;;;39.37;20.60;;;3.40;92.30;;;;;;5053778;28;20642;-88
2022/11/23 02:23:59;;;;;;;40.03;22.43;;;3.40;92.30;;;;;;5053388;28;20179;-88
2022/11/23 02:26:28;;;;;;;33.30;21.07;;;3.40;92.30;;;;;;5054328;28;20196;-89
2022/11/23 02:29:13;;;;;;;31.43;20.97;;;3.50;92.30;;;;;;5053220;28;20203;-89
2022/11/23 02:31:38;;;;;;;39.93;21.60;;;3.50;92.20;;;;;;5053338;28;20176;-88
2022/11/23 02:34:04;;;;;;;39.80;21.13;;;3.50;92.20;;;;;;5054299;28;20187;-88
2022/11/23 02:36:37;;;;;;;37.73;22.27;;;3.50;92.20;;;;;;5053401;28;20627;-89
2022/11/23 02:39:10;;;;;;;33.63;20.67;;;3.50;92.20;;;;;;5053947;28;20273;-88
2022/11/23 02:41:42;;;;;;;32.03;19.53;;;3.50;92.20;;;;;;5052990;28;20261;-89
2022/11/23 02:44:22;;;;;;;33.07;20.87;;;3.60;92.20;;;;;;5052938;28;20180;-89
2022/11/23 02:46:47;;;;;;;32.67;20.60;;;3.60;92.20;;;;;;5053149;28;20204;-88
2022/11/23 02:49:13;;;;;;;31.00;21.03;;;3.60;92.30;;;;;;5052787;28;20183;-89
2022/11/23 02:51:39;;;;;;;34.83;20.43;;;3.60;92.30;;;;;;5052826;28;20629;-89
2022/11/23 02:54:04;;;;;;;30.10;20.13;;;3.60;92.40;;;;;;5052363;28;20275;-88
2022/11/23 02:56:30;;;;;;;32.00;20.77;;;3.60;92.40;;;;;;5052624;28;20200;-89
2022/11/23 02:58:55;;;;;;;31.90;20.80;;;3.60;92.50;;;;;;5052708;28;20177;-88
2022/11/23 03:01:21;;;;;;;38.70;21.50;;;3.60;92.50;;;;;;5053381;28;20181;-89
2022/11/23 03:03:46;;;;;;;31.70;20.97;;;3.60;92.60;;;;;;5052529;28;20214;-89
2022/11/23 03:06:12;;;;;;;31.17;19.57;;;3.60;92.60;;;;;;5052892;28;20201;-89
2022/11/23 03:08:37;;;;;;;34.33;20.83;;;3.70;92.70;;;;;;5053991;28;20181;-89
2022/11/23 03:11:03;;;;;;;30.37;20.67;;;3.70;92.70;;;;;;5053625;28;20233;-89
2022/11/23 03:13:28;;;;;;;30.67;20.73;;;3.70;92.80;;;;;;5053571;28;20647;-88
2022/11/23 03:15:57;;;;;;;32.60;20.00;;;3.60;92.80;;;;;;5052249;28;20197;-89
2022/11/23 03:18:24;;;;;;;28.77;19.50;;;3.60;92.80;;;;;;5052288;28;20647;-89
2022/11/23 03:20:50;;;;;;;30.50;19.73;;;3.60;92.90;;;;;;5052303;28;20176;-89
2022/11/23 03:23:15;;;;;;;29.43;19.10;;;3.60;93.00;;;;;;5052589;28;20533;-88
2022/11/23 03:25:41;;;;;;;30.97;19.33;;;3.60;93.10;;;;;;5052127;28;20612;-89
2022/11/23 03:28:06;;;;;;;33.27;20.00;;;3.60;93.10;;;;;;5052199;28;20208;-88
2022/11/23 03:30:32;;;;;;;31.43;19.43;;;3.70;93.10;;;;;;5052219;28;20614;-89
2022/11/23 03:32:57;;;;;;;35.63;20.23;;;3.70;93.20;;;;;;5052226;28;20207;-89
2022/11/23 03:35:23;;;;;;;31.97;18.90;;;3.70;93.20;;;;;;5053162;28;20209;-89
2022/11/23 03:37:48;;;;;;;26.30;18.40;;;3.80;93.30;;;;;;5052040;28;20222;-89
2022/11/23 03:40:14;;;;;;;36.67;20.03;;;3.80;93.30;;;;;;5052083;28;20214;-88
2022/11/23 03:42:40;;;;;;;30.90;20.23;;;3.80;93.30;;;;;;5051988;28;20556;-89
2022/11/23 03:45:07;;;;;;;30.60;18.77;;;3.80;93.30;;;;;;5051919;28;20196;-89
2022/11/23 03:47:33;;;;;;;27.50;17.33;;;3.80;93.30;;;;;;5052226;28;20197;-90
2022/11/23 03:49:58;;;;;;;28.37;18.17;;;3.80;93.30;;;;;;5051872;28;20222;-90
2022/11/23 03:52:24;;;;;;;28.97;19.73;;;3.80;93.30;;;;;;5053400;28;20183;-89
2022/11/23 03:54:49;;;;;;;25.27;18.23;;;3.80;93.20;;;;;;5051760;28;20234;-89
2022/11/23 03:57:15;;;;;;;30.57;20.40;;;3.80;93.20;;;;;;5052198;28;20246;-89
2022/11/23 03:59:40;;;;;;;33.07;19.17;;;3.80;93.20;;;;;;5053516;28;20314;-88
2022/11/23 04:02:06;;;;;;;31.83;18.23;;;3.80;93.10;;;;;;5051865;28;20180;-89
2022/11/23 04:04:32;;;;;;;31.70;18.50;;;3.80;93.10;;;;;;5052846;28;20700;-88
2022/11/23 04:06:58;;;;;;;31.83;20.13;;;3.80;93.10;;;;;;5055862;28;20286;-88
2022/11/23 04:09:24;;;;;;;35.37;18.63;;;3.80;93.00;;;;;;5057416;28;20263;-88
2022/11/23 04:11:49;;;;;;;28.07;18.53;;;3.80;93.00;;;;;;5056362;28;20181;-89
2022/11/23 04:14:15;;;;;;;29.27;19.63;;;3.90;93.00;;;;;;5057077;28;20170;-89
2022/11/23 04:16:44;;;;;;;31.87;18.53;;;3.90;93.00;;;;;;5056118;28;20562;-89
2022/11/23 04:19:09;;;;;;;28.77;17.77;;;3.90;93.00;;;;;;5055626;28;20233;-88
2022/11/23 04:21:36;;;;;;;28.07;19.30;;;3.80;93.00;;;;;;5055721;28;20231;-88
2022/11/23 04:24:01;;;;;;;34.67;20.47;;;3.90;93.00;;;;;;5055544;28;20259;-89
2022/11/23 04:26:27;;;;;;;29.80;18.60;;;3.80;92.90;;;;;;5055475;28;20238;-89
2022/11/23 04:28:52;;;;;;;31.93;18.47;;;3.80;93.00;;;;;;5055444;28;20168;-89
2022/11/23 04:31:18;;;;;;;27.30;18.47;;;3.90;93.00;;;;;;5055778;28;20175;-89
2022/11/23 04:33:44;;;;;;;32.30;17.97;;;3.90;93.00;;;;;;5055039;28;20277;-89
2022/11/23 04:36:09;;;;;;;33.03;17.57;;;3.90;93.10;;;;;;5054009;28;20731;-88
2022/11/23 04:38:35;;;;;;;30.80;18.90;;;3.90;93.10;;;;;;5054369;28;20206;-88
2022/11/23 04:41:00;;;;;;;29.60;18.33;;;4.00;93.10;;;;;;5055425;28;20564;-89
2022/11/23 04:43:26;;;;;;;25.27;18.07;;;3.90;93.10;;;;;;5053865;28;20182;-89
2022/11/23 04:45:51;;;;;;;26.27;17.20;;;3.90;93.20;;;;;;5053825;28;20230;-88
2022/11/23 04:48:17;;;;;;;33.20;17.70;;;4.00;93.30;;;;;;5055530;28;20199;-89
2022/11/23 04:50:42;;;;;;;31.57;17.90;;;4.00;93.40;;;;;;5053815;28;20172;-89
2022/11/23 04:53:08;;;;;;;30.00;17.37;;;3.90;93.40;;;;;;5055013;28;20171;-89
2022/11/23 04:55:34;;;;;;;29.17;18.00;;;4.00;93.50;;;;;;5054939;28;20195;-89
2022/11/23 04:57:59;;;;;;;32.37;18.77;;;4.00;93.50;;;;;;5054887;28;20297;-89
2022/11/23 05:00:26;;;;;;;32.90;18.83;;;4.00;93.60;;;;;;5055150;28;20185;-89
2022/11/23 05:02:52;;;;;;;30.43;19.03;;;4.00;93.60;;;;;;5054952;28;20203;-90
2022/11/23 05:05:17;;;;;;;27.00;17.67;;;4.00;93.70;;;;;;5053501;28;20237;-89
2022/11/23 05:07:43;;;;;;;32.17;17.90;;;4.00;93.80;;;;;;5054716;28;20201;-89
2022/11/23 05:10:09;;;;;;;31.10;18.17;;;4.00;93.80;;;;;;5053390;28;20219;-89
2022/11/23 05:12:35;;;;;;;25.57;16.87;;;4.00;93.90;;;;;;5054676;28;20255;-89
2022/11/23 05:15:02;;;;;;;27.57;18.67;;;4.00;94.00;;;;;;5054575;28;20193;-89
2022/11/23 05:17:28;;;;;;;27.33;18.27;;;4.00;94.00;;;;;;5053526;28;20262;-89
2022/11/23 05:19:55;;;;;;;32.37;18.03;;;4.00;94.00;;;;;;5054489;28;20260;-89
2022/11/23 05:22:20;;;;;;;34.63;18.80;;;4.00;94.10;;;;;;5054584;28;20609;-89
2022/11/23 05:24:46;;;;;;;28.33;17.80;;;4.00;94.10;;;;;;5053169;28;20240;-89
2022/11/23 05:27:11;;;;;;;32.50;18.23;;;4.00;94.20;;;;;;5054402;28;20224;-89
2022/11/23 05:29:37;;;;;;;28.83;18.63;;;4.00;94.20;;;;;;5053190;28;20172;-89
2022/11/23 05:32:03;;;;;;;27.70;17.93;;;4.00;94.20;;;;;;5054397;28;20253;-89
2022/11/23 05:34:28;;;;;;;30.47;18.50;;;4.00;94.20;;;;;;5017736;28;1068001;-88
2022/11/23 05:36:54;;;;;;;27.70;17.33;;;4.10;94.30;;;;;;5054634;28;20211;-88
2022/11/23 05:39:19;;;;;;;29.83;17.73;;;4.10;94.30;;;;;;5055886;28;20187;-89
2022/11/23 05:41:45;;;;;;;32.50;18.27;;;4.10;94.30;;;;;;5054163;28;20182;-89
2022/11/23 05:44:10;;;;;;;27.43;17.60;;;4.10;94.40;;;;;;5055252;28;20182;-89
2022/11/23 05:46:36;;;;;;;32.70;18.27;;;4.10;94.40;;;;;;5053798;28;20213;-89
2022/11/23 05:49:01;;;;;;;28.83;17.37;;;4.10;94.40;;;;;;5054023;28;20178;-89
2022/11/23 05:51:27;;;;;;;29.53;17.13;;;4.20;94.50;;;;;;5055204;28;20168;-89
2022/11/23 05:53:52;;;;;;;31.83;16.70;;;4.20;94.50;;;;;;5055078;28;20174;-88
2022/11/23 05:56:18;;;;;;;28.80;16.97;;;4.20;94.50;;;;;;5053836;28;20201;-89
2022/11/23 05:58:43;;;;;;;31.33;17.67;;;4.20;94.50;;;;;;5055727;28;20178;-87
2022/11/23 06:01:09;;;;;;;32.70;16.33;;;4.20;94.50;;;;;;5053891;28;20176;-89
2022/11/23 06:03:35;;;;;;;30.80;17.47;;;4.20;94.60;;;;;;5054841;28;20174;-89
2022/11/23 06:06:00;;;;;;;27.07;18.03;;;4.20;94.60;;;;;;5054769;28;20211;-89
2022/11/23 06:08:26;;;;;;;27.37;16.53;;;4.20;94.60;;;;;;5053549;28;20206;-89
2022/11/23 06:10:51;;;;;;;26.87;16.47;;;4.20;94.60;;;;;;5055067;28;20177;-89
2022/11/23 06:13:17;;;;;;;28.30;16.00;;;4.30;94.60;;;;;;5053604;28;20770;-89
2022/11/23 06:15:42;;;;;;;24.97;15.53;;;4.30;94.60;;;;;;5053376;28;20189;-89
2022/11/23 06:18:08;;;;;;;28.07;16.10;;;4.30;94.70;;;;;;5053461;28;20266;-89
2022/11/23 06:20:34;;;;;;;24.57;15.60;;;4.30;94.60;;;;;;5054472;28;20665;-89
2022/11/23 06:22:59;;;;;;;25.90;16.17;;;4.40;94.70;;;;;;5054508;28;20643;-89
2022/11/23 06:25:25;;;;;;;30.00;16.53;;;4.40;94.70;;;;;;5053211;28;20198;-89
2022/11/23 06:27:56;;;;;;;27.83;16.90;;;4.40;94.70;;;;;;5053574;28;20201;-89
2022/11/23 06:30:21;;;;;;;26.97;15.57;;;4.40;94.70;;;;;;5053251;28;20582;-89
2022/11/23 06:32:47;;;;;;;24.30;15.57;;;4.40;94.70;;;;;;5053257;28;20175;-90
2022/11/23 06:35:12;;;;;;;26.57;16.23;;;4.40;94.70;;;;;;5053425;28;20733;-89
2022/11/23 06:37:38;;;;;;;31.57;18.40;;;4.40;94.70;;;;;;5053234;28;20559;-89
2022/11/23 06:40:04;;;;;;;25.27;15.37;;;4.50;94.70;;;;;;5052954;28;20179;-89
2022/11/23 06:42:29;;;;;;;25.40;16.47;;;4.50;94.70;;;;;;5054194;28;20252;-89
2022/11/23 06:44:55;;;;;;;27.30;16.63;;;4.50;94.70;;;;;;5052866;28;20622;-89
2022/11/23 06:47:20;;;;;;;27.00;16.57;;;4.50;94.70;;;;;;5053427;28;20200;-89
2022/11/23 06:49:46;;;;;;;27.40;15.43;;;4.50;94.70;;;;;;5052760;28;20197;-89
2022/11/23 06:52:12;;;;;;;24.27;16.10;;;4.50;94.70;;;;;;5054305;28;20175;-89
2022/11/23 06:54:38;;;;;;;27.20;16.70;;;4.50;94.70;;;;;;5053874;28;20634;-88
2022/11/23 06:57:06;;;;;;;28.07;17.00;;;4.50;94.70;;;;;;5053863;28;20186;-88
2022/11/23 06:59:32;;;;;;;31.63;17.00;;;4.50;94.70;;;;;;5053867;28;20190;-89
2022/11/23 07:01:57;;;;;;;25.07;15.70;;;4.50;94.70;;;;;;5053829;28;20178;-89
2022/11/23 07:04:23;;;;;;;27.57;16.10;;;4.50;94.70;;;;;;5052461;28;20182;-89
2022/11/23 07:06:48;;;;;;;27.33;17.10;;;4.50;94.60;;;;;;5053928;28;20226;-89
2022/11/23 07:09:14;;;;;;;30.47;16.20;;;4.50;94.60;;;;;;5052415;28;20182;-89
2022/11/23 07:11:40;;;;;;;25.80;16.30;;;4.50;94.70;;;;;;5053915;28;20171;-89
2022/11/23 07:14:06;;;;;;;27.90;16.80;;;4.50;94.70;;;;;;5052744;28;20174;-88
2022/11/23 07:16:32;;;;;;;26.87;16.83;;;4.50;94.70;;;;;;5052772;28;20555;-89
2022/11/23 07:18:57;;;;;;;25.10;18.00;;;4.50;94.70;;;;;;5053529;28;20183;-89
2022/11/23 07:21:23;;;;;;;29.50;16.90;;;4.50;94.70;;;;;;5052267;28;20175;-90
2022/11/23 07:23:48;;;;;;;25.20;15.93;;;4.50;94.60;;;;;;5052189;28;20180;-89
2022/11/23 07:26:14;;;;;;;26.13;16.60;;;4.50;94.60;;;;;;5052141;28;20206;-89
2022/11/23 07:28:39;;;;;;;27.83;16.37;;;4.50;94.60;;;;;;5053283;28;20209;-89
2022/11/23 07:31:05;;;;;;;29.10;16.70;;;4.50;94.70;;;;;;5052963;28;20174;-89
2022/11/23 07:33:30;;;;;;;24.33;16.10;;;4.60;94.70;;;;;;5053223;28;20672;-89
2022/11/23 07:36:00;;;;;;;22.07;15.53;;;4.60;94.70;;;;;;5052035;28;20234;-89
2022/11/23 07:38:26;;;;;;;28.73;16.77;;;4.60;94.70;;;;;;5053086;28;20185;-89
2022/11/23 07:40:51;;;;;;;22.90;15.57;;;4.50;94.70;;;;;;5053280;28;20245;-89
2022/11/23 07:43:17;;;;;;;24.53;15.67;;;4.50;94.60;;;;;;5053277;28;20210;-89
2022/11/23 07:45:42;;;;;;;30.33;16.43;;;4.50;94.70;;;;;;5053196;28;20243;-89
2022/11/23 07:48:09;;;;;;;25.77;15.87;;;4.60;94.70;;;;;;5052084;28;20733;-89
2022/11/23 07:50:36;;;;;;;20.57;14.63;;;4.60;94.70;;;;;;5053102;28;20182;-89
2022/11/23 07:53:03;;;;;;;26.17;15.23;;;4.60;94.70;;;;;;5051920;28;20201;-89
2022/11/23 07:55:30;;;;;;;23.07;16.20;;;4.60;94.60;;;;;;5053053;28;20681;-89
2022/11/23 07:57:56;;;;;;;23.03;16.27;;;4.60;94.70;;;;;;5051992;28;20232;-89
2022/11/23 08:00:23;;;;;;;26.07;15.57;;;4.60;94.70;;;;;;5051838;28;20667;-89
2022/11/23 08:02:49;;;;;;;23.33;15.17;;;4.60;94.70;;;;;;5051732;28;20186;-89
2022/11/23 08:05:15;;;;;;;27.03;16.00;;;4.60;94.70;;;;;;5052521;28;20199;-89
2022/11/23 08:07:41;;;;;;;25.57;16.47;;;4.70;94.70;;;;;;5052046;28;20559;-89
2022/11/23 08:10:07;;;;;;;26.83;16.63;;;4.70;94.70;;;;;;5051763;28;20183;-89
2022/11/23 08:12:33;;;;;;;25.87;16.23;;;4.80;94.70;;;;;;5051914;28;20190;-89
2022/11/23 08:14:58;;;;;;;23.83;15.70;;;4.80;94.70;;;;;;5051661;28;20209;-89
2022/11/23 08:17:24;;;;;;;19.33;13.63;;;4.80;94.70;;;;;;5052955;28;20183;-89
2022/11/23 08:19:49;;;;;;;19.43;13.37;;;4.90;94.70;;;;;;5051718;28;20195;-89
2022/11/23 08:22:15;;;;;;;23.53;14.00;;;4.90;94.70;;;;;;5051727;28;20249;-89
2022/11/23 08:24:41;;;;;;;26.67;18.17;;;4.90;94.80;;;;;;5051806;28;20624;-89
2022/11/23 08:27:06;;;;;;;29.37;14.40;;;4.90;94.70;;;;;;5052133;28;20204;-88
2022/11/23 08:29:32;;;;;;;20.80;13.17;;;4.90;94.70;;;;;;5051891;28;20187;-88
2022/11/23 08:31:57;;;;;;;22.03;13.77;;;5.00;94.70;;;;;;5053151;28;20200;-90
2022/11/23 08:34:23;;;;;;;27.20;13.90;;;5.10;94.80;;;;;;5052212;28;20280;-89
2022/11/23 08:36:49;;;;;;;23.17;13.37;;;5.00;94.80;;;;;;5051372;28;20222;-89
2022/11/23 08:39:16;;;;;;;31.63;16.57;;;5.10;94.80;;;;;;5052736;28;20226;-89
2022/11/23 08:41:41;;;;;;;21.53;13.17;;;5.00;94.70;;;;;;5051418;28;20653;-89
2022/11/23 08:44:09;;;;;;;29.37;15.20;;;5.20;94.80;;;;;;5051795;28;20187;-88
2022/11/23 08:46:35;;;;;;;22.27;12.50;;;5.10;94.80;;;;;;5051345;28;20677;-89
2022/11/23 08:49:01;;;;;;;27.90;12.20;;;5.20;94.80;;;;;;5052643;28;20175;-89
2022/11/23 08:51:26;;;;;;;22.30;12.13;;;5.30;94.80;;;;;;5053023;28;20184;-87
2022/11/23 08:53:52;;;;;;;24.40;13.33;;;5.30;94.80;;;;;;5055349;28;20183;-87
2022/11/23 08:56:17;;;;;;;26.27;12.50;;;5.30;94.80;;;;;;5055307;28;20217;-89
2022/11/23 08:58:43;;;;;;;18.93;11.37;;;5.30;94.80;;;;;;5055180;28;20179;-88
2022/11/23 09:01:13;;;;;;;21.43;11.33;;;5.30;94.80;;;;;;5055436;28;20176;-89
2022/11/23 09:03:39;;;;;;;21.20;11.30;;;5.40;94.80;;;;;;5056390;28;20718;-89
2022/11/23 09:06:05;;;;;;;23.03;11.80;;;5.50;94.80;;;;;;5056360;28;20200;-89
2022/11/23 09:08:31;;;;;;;17.73;11.40;;;5.50;94.70;;;;;;5055001;28;20708;-88
2022/11/23 09:11:01;;;;;;;18.60;12.13;;;5.50;94.70;;;;;;5055035;28;20183;-88
2022/11/23 09:13:27;;;;;;;20.83;11.77;;;5.50;94.70;;;;;;5055037;28;20172;-88
2022/11/23 09:16:00;;;;;;;20.53;12.47;;;5.50;94.70;;;;;;5054932;28;20199;-88
2022/11/23 09:18:27;;;;;;;21.30;11.00;;;5.50;94.70;;;;;;5054781;28;20269;-89
2022/11/23 09:20:52;;;;;;;23.53;11.03;;;5.50;94.70;;;;;;5054619;28;20184;-89
2022/11/23 09:23:18;;;;;;;17.97;11.20;;;5.50;94.60;;;;;;5054545;28;20230;-88
2022/11/23 09:25:47;;;;;;;26.10;11.87;;;5.50;94.60;;;;;;5054494;28;20245;-88
2022/11/23 09:28:13;;;;;;;22.07;11.40;;;5.50;94.60;;;;;;5054502;28;20218;-88
2022/11/23 09:30:39;;;;;;;18.07;10.63;;;5.50;94.60;;;;;;5055596;28;20167;-89
2022/11/23 09:33:05;;;;;;;17.17;11.37;;;5.60;94.60;;;;;;5054585;28;20262;-89
2022/11/23 09:35:31;;;;;;;15.20;10.13;;;5.60;94.60;;;;;;5054162;28;20218;-89
2022/11/23 09:37:57;;;;;;;19.53;9.70;;;5.70;94.70;;;;;;5055067;28;20176;-89
2022/11/23 09:40:27;;;;;;;15.63;10.40;;;5.70;94.60;;;;;;5054199;28;20176;-89
2022/11/23 09:43:31;;;;;;;22.27;11.17;;;5.80;94.70;;;;;;5055332;28;20176;-89
2022/11/23 09:46:06;;;;;;;13.27;9.63;;;5.90;94.70;;;;;;5053872;28;20203;-88
2022/11/23 09:48:37;;;;;;;21.13;9.20;;;6.00;94.70;;;;;;5054044;28;20191;-89
2022/11/23 09:51:16;;;;;;;18.07;9.03;;;6.10;94.70;;;;;;5054780;28;20233;-88
2022/11/23 09:54:12;;;;;;;17.33;9.57;;;6.20;94.70;;;;;;5054286;28;20176;-89
2022/11/23 09:56:41;;;;;;;24.73;9.10;;;6.20;94.70;;;;;;5054175;28;20696;-88
2022/11/23 09:59:22;;;;;;;17.73;8.93;;;6.20;94.70;;;;;;5054291;28;20581;-89
2022/11/23 10:01:48;;;;;;;16.27;8.63;;;6.30;94.70;;;;;;5054206;28;20611;-88
2022/11/23 10:04:18;;;;;;;14.97;9.03;;;6.30;94.60;;;;;;5052996;28;20203;-89
2022/11/23 10:06:50;;;;;;;14.93;8.40;;;6.30;94.60;;;;;;5053612;28;20191;-89
2022/11/23 10:09:48;;;;;;;15.63;8.90;;;6.40;94.60;;;;;;5053729;28;20175;-89
2022/11/23 10:12:45;;;;;;;14.87;8.93;;;6.50;94.60;;;;;;5053906;28;20165;-88
2022/11/23 10:15:19;;;;;;;13.07;7.67;;;6.50;94.60;;;;;;5054021;28;20218;-88
2022/11/23 10:18:22;;;;;;;15.50;9.63;;;6.50;94.50;;;;;;5053646;28;20259;-89
2022/11/23 10:20:55;;;;;;;26.17;11.53;;;6.60;94.50;;;;;;5054820;28;20182;-88
2022/11/23 10:23:52;;;;;;;21.30;9.90;;;6.70;94.50;;;;;;5053345;28;20176;-89
2022/11/23 10:26:22;;;;;;;27.17;12.23;;;6.70;94.40;;;;;;5053224;28;20196;-89
2022/11/23 10:28:49;;;;;;;25.43;12.33;;;6.80;94.40;;;;;;5053044;28;20732;-89
2022/11/23 10:31:20;;;;;;;24.10;12.57;;;6.80;94.40;;;;;;5053476;28;20270;-88
2022/11/23 10:34:14;;;;;;;30.10;13.53;;;6.80;94.40;;;;;;5053950;28;20218;-88
2022/11/23 10:36:40;;;;;;;25.63;14.27;;;6.90;94.40;;;;;;5054377;28;20202;-88
2022/11/23 10:39:24;;;;;;;25.97;13.67;;;7.00;94.40;;;;;;5053139;28;20660;-89
2022/11/23 10:41:51;;;;;;;23.87;14.13;;;7.10;94.40;;;;;;5054193;28;20179;-88
2022/11/23 10:44:16;;;;;;;17.03;9.07;;;7.10;94.40;;;;;;5053046;28;20172;-88
2022/11/23 10:46:43;;;;;;;14.87;9.17;;;7.20;94.40;;;;;;5053070;28;20196;-89
2022/11/23 10:49:17;;;;;;;25.70;13.03;;;7.20;94.30;;;;;;5053259;28;20187;-89
2022/11/23 10:51:57;;;;;;;21.03;10.57;;;7.30;94.30;;;;;;5052896;28;20233;-89
2022/11/23 10:54:26;;;;;;;24.57;12.40;;;7.20;94.20;;;;;;5053307;28;20161;-88
2022/11/23 10:56:53;;;;;;;19.00;9.67;;;7.30;94.10;;;;;;5052727;28;20172;-88
2022/11/23 10:59:30;;;;;;;16.13;9.00;;;7.20;94.00;;;;;;5052759;28;20187;-88
2022/11/23 11:02:17;;;;;;;18.07;9.00;;;7.30;94.00;;;;;;5052782;28;20642;-89
2022/11/23 11:04:43;;;;;;;14.63;7.90;;;7.30;93.90;;;;;;5052575;28;20548;-88
2022/11/23 11:07:21;;;;;;;15.97;7.30;;;7.40;93.90;;;;;;5055292;28;20231;-88
2022/11/23 11:09:58;;;;;;;11.97;5.90;;;7.30;93.60;;;;;;5054654;28;20626;-88
2022/11/23 11:12:25;;;;;;;12.40;6.63;;;7.30;93.60;;;;;;5054384;28;20247;-88
2022/11/23 11:15:10;;;;;;;13.97;7.07;;;7.40;93.50;;;;;;5053408;28;20662;-89
2022/11/23 11:17:38;;;;;;;14.17;5.63;;;7.40;93.40;;;;;;5052497;28;20212;-89
2022/11/23 11:20:43;;;;;;;13.27;6.17;;;7.40;93.30;;;;;;5052684;28;20182;-88
2022/11/23 11:23:18;;;;;;;13.07;6.43;;;7.50;93.20;;;;;;4976256;28;20182;-89
2022/11/23 11:25:46;;;;;;;15.53;5.43;;;7.50;93.20;;;;;;5044415;28;20214;-89
2022/11/23 11:28:28;;;;;;;14.80;5.20;;;7.60;93.00;;;;;;5053773;28;20261;-89
2022/11/23 11:31:27;;;;;;;15.97;5.13;;;7.60;92.90;;;;;;5052355;28;20166;-89
2022/11/23 11:34:04;;;;;;;9.87;4.83;;;7.70;92.90;;;;;;5053316;28;20194;-89
2022/11/23 11:36:37;;;;;;;15.63;5.40;;;7.70;92.60;;;;;;5052242;28;20246;-89
2022/11/23 11:39:09;;;;;;;10.50;5.40;;;7.70;92.60;;;;;;5052382;28;20168;-89
2022/11/23 11:41:36;;;;;;;7.07;4.33;;;7.70;92.50;;;;;;5052415;28;20198;-89
2022/11/23 11:44:16;;;;;;;12.77;4.80;;;7.70;92.20;;;;;;5052381;28;20646;-89
2022/11/23 11:46:48;;;;;;;13.73;5.17;;;7.70;92.10;;;;;;5052303;28;20200;-89
2022/11/23 11:49:31;;;;;;;11.07;5.00;;;7.80;92.10;;;;;;5052480;28;20680;-89
2022/11/23 11:52:07;;;;;;;14.10;5.10;;;7.80;92.00;;;;;;5052310;28;20164;-89
2022/11/23 11:55:14;;;;;;;11.17;4.73;;;7.80;92.00;;;;;;5053354;28;20152;-88
2022/11/23 11:57:50;;;;;;;10.20;4.67;;;7.80;92.00;;;;;;4975765;28;20185;-89
2022/11/23 12:00:20;;;;;;;11.43;4.40;;;7.80;91.80;;;;;;5047840;28;20187;-88
2022/11/23 12:02:51;;;;;;;7.63;4.20;;;7.90;91.80;;;;;;5053074;28;20178;-88
2022/11/23 12:05:23;;;;;;;11.67;4.77;;;7.90;91.80;;;;;;5052249;28;20208;-89
2022/11/23 12:08:05;;;;;;;10.30;4.20;;;7.90;91.80;;;;;;5052840;28;20210;-88
2022/11/23 12:10:37;;;;;;;11.10;4.50;;;8.00;91.80;;;;;;5051908;28;20180;-89
2022/11/23 12:13:03;;;;;;;9.33;4.00;;;8.00;91.50;;;;;;5053181;28;20184;-87
2022/11/23 12:16:10;;;;;;;8.27;4.40;;;8.00;91.40;;;;;;5055923;28;20191;-87
2022/11/23 12:19:00;;;;;;;9.90;4.20;;;8.00;91.30;;;;;;5053232;28;20590;-90
2022/11/23 12:21:41;;;;;;;8.80;4.37;;;8.00;91.30;;;;;;5053269;28;20175;-89
2022/11/23 12:24:34;;;;;;;12.20;3.90;;;8.00;91.30;;;;;;5055004;28;20200;-86
2022/11/23 12:26:59;;;;;;;12.80;3.70;;;8.10;91.30;;;;;;5056718;28;20202;-87
2022/11/23 12:29:54;;;;;;;7.90;3.63;;;8.20;91.30;;;;;;5055978;28;20184;-87
2022/11/23 12:32:48;;;;;;;12.07;4.20;;;8.20;91.10;;;;;;5056944;28;20273;-87
2022/11/23 12:35:51;;;;;;;12.57;4.17;;;8.30;91.00;;;;;;5055804;28;20595;-87
2022/11/23 12:38:30;;;;;;;4.83;3.33;;;8.30;90.80;;;;;;5056196;28;20280;-88
2022/11/23 12:41:20;;;;;;;11.77;4.57;;;8.30;90.50;;;;;;5056135;28;20169;-88
2022/11/23 12:43:56;;;;;;;9.77;4.03;;;8.30;90.30;;;;;;5056835;28;20168;-88
2022/11/23 12:46:46;;;;;;;7.50;4.77;;;8.30;90.30;;;;;;5071472;28;20204;-92
2022/11/23 12:49:33;;;;;;;8.93;4.87;;;8.30;90.10;;;;;;5078225;28;20207;-93